sensor_id;sensor_type;location;lat;lon;timestamp;P1;durP1;ratioP1;P2;durP2;ratioP2
15673;SDS011;7937;48.090;16.212;2023-02-26T00:02:17;1.33;;;1.00;;
15673;SDS011;7937;48.090;16.212;2023-02-26T00:05:19;1.17;;;0.97;;
15673;SDS011;7937;48.090;16.212;2023-02-26T00:08:21;1.30;;;1.20;;
15673;SDS011;7937;48.090;16.212;2023-02-26T00:11:23;1.40;;;1.30;;
15673;SDS011;7937;48.090;16.212;2023-02-26T00:14:26;1.40;;;1.20;;
15673;SDS011;7937;48.090;16.212;2023-02-26T00:17:31;1.20;;;1.10;;
15673;SDS011;7937;48.090;16.212;2023-02-26T00:20:35;2.00;;;1.70;;
15673;SDS011;7937;48.090;16.212;2023-02-26T00:23:37;3.03;;;1.93;;
15673;SDS011;7937;48.090;16.212;2023-02-26T00:26:39;1.50;;;1.40;;
15673;SDS011;7937;48.090;16.212;2023-02-26T00:29:42;1.57;;;1.40;;
15673;SDS011;7937;48.090;16.212;2023-02-26T00:32:44;1.50;;;1.40;;
15673;SDS011;7937;48.090;16.212;2023-02-26T00:35:46;1.80;;;1.53;;
15673;SDS011;7937;48.090;16.212;2023-02-26T00:42:09;1.30;;;1.20;;
15673;SDS011;7937;48.090;16.212;2023-02-26T00:45:12;1.53;;;1.43;;
15673;SDS011;7937;48.090;16.212;2023-02-26T00:48:18;1.60;;;1.50;;
15673;SDS011;7937;48.090;16.212;2023-02-26T00:51:44;1.80;;;1.70;;
15673;SDS011;7937;48.090;16.212;2023-02-26T00:54:50;1.70;;;1.60;;
15673;SDS011;7937;48.090;16.212;2023-02-26T00:57:52;1.70;;;1.60;;
15673;SDS011;7937;48.090;16.212;2023-02-26T01:00:54;1.70;;;1.60;;
15673;SDS011;7937;48.090;16.212;2023-02-26T01:03:56;1.97;;;1.70;;
15673;SDS011;7937;48.090;16.212;2023-02-26T01:06:59;2.03;;;1.90;;
15673;SDS011;7937;48.090;16.212;2023-02-26T01:10:01;2.13;;;1.93;;
15673;SDS011;7937;48.090;16.212;2023-02-26T01:13:03;2.10;;;1.93;;
15673;SDS011;7937;48.090;16.212;2023-02-26T01:16:08;2.10;;;1.90;;
15673;SDS011;7937;48.090;16.212;2023-02-26T01:19:19;2.20;;;2.00;;
15673;SDS011;7937;48.090;16.212;2023-02-26T01:23:04;2.93;;;2.43;;
15673;SDS011;7937;48.090;16.212;2023-02-26T01:26:10;2.97;;;2.67;;
15673;SDS011;7937;48.090;16.212;2023-02-26T01:29:24;3.47;;;2.73;;
15673;SDS011;7937;48.090;16.212;2023-02-26T01:32:29;2.70;;;2.50;;
15673;SDS011;7937;48.090;16.212;2023-02-26T01:42:17;2.60;;;2.40;;
15673;SDS011;7937;48.090;16.212;2023-02-26T01:45:24;3.43;;;2.10;;
15673;SDS011;7937;48.090;16.212;2023-02-26T01:51:44;2.37;;;2.17;;
15673;SDS011;7937;48.090;16.212;2023-02-26T01:54:48;2.60;;;2.40;;
15673;SDS011;7937;48.090;16.212;2023-02-26T01:57:51;2.40;;;2.20;;
15673;SDS011;7937;48.090;16.212;2023-02-26T02:00:56;2.00;;;1.70;;
15673;SDS011;7937;48.090;16.212;2023-02-26T02:03:58;2.67;;;2.27;;
15673;SDS011;7937;48.090;16.212;2023-02-26T02:07:01;2.40;;;2.20;;
15673;SDS011;7937;48.090;16.212;2023-02-26T02:10:05;1.80;;;1.70;;
15673;SDS011;7937;48.090;16.212;2023-02-26T02:19:58;1.37;;;1.27;;
15673;SDS011;7937;48.090;16.212;2023-02-26T02:26:39;2.70;;;1.73;;
15673;SDS011;7937;48.090;16.212;2023-02-26T02:34:03;2.23;;;2.03;;
15673;SDS011;7937;48.090;16.212;2023-02-26T02:37:24;1.73;;;1.63;;
15673;SDS011;7937;48.090;16.212;2023-02-26T02:40:42;2.10;;;1.43;;
15673;SDS011;7937;48.090;16.212;2023-02-26T02:43:47;4.23;;;1.77;;
15673;SDS011;7937;48.090;16.212;2023-02-26T02:46:52;3.00;;;2.07;;
15673;SDS011;7937;48.090;16.212;2023-02-26T02:49:58;1.70;;;1.60;;
15673;SDS011;7937;48.090;16.212;2023-02-26T02:53:08;1.57;;;1.47;;
15673;SDS011;7937;48.090;16.212;2023-02-26T02:59:36;1.73;;;1.63;;
15673;SDS011;7937;48.090;16.212;2023-02-26T03:06:11;1.90;;;1.70;;
15673;SDS011;7937;48.090;16.212;2023-02-26T03:09:14;2.10;;;1.90;;
15673;SDS011;7937;48.090;16.212;2023-02-26T03:12:17;1.80;;;1.70;;
15673;SDS011;7937;48.090;16.212;2023-02-26T03:15:22;1.70;;;1.60;;
15673;SDS011;7937;48.090;16.212;2023-02-26T03:32:08;2.10;;;1.70;;
15673;SDS011;7937;48.090;16.212;2023-02-26T03:35:17;1.77;;;1.67;;
15673;SDS011;7937;48.090;16.212;2023-02-26T03:38:30;2.63;;;1.70;;
15673;SDS011;7937;48.090;16.212;2023-02-26T03:41:51;2.53;;;2.00;;
15673;SDS011;7937;48.090;16.212;2023-02-26T03:48:10;2.00;;;1.77;;
15673;SDS011;7937;48.090;16.212;2023-02-26T03:51:16;1.97;;;1.77;;
15673;SDS011;7937;48.090;16.212;2023-02-26T03:54:51;1.90;;;1.70;;
15673;SDS011;7937;48.090;16.212;2023-02-26T03:58:39;1.83;;;1.70;;
15673;SDS011;7937;48.090;16.212;2023-02-26T04:02:04;1.70;;;1.40;;
15673;SDS011;7937;48.090;16.212;2023-02-26T04:05:14;1.40;;;1.20;;
15673;SDS011;7937;48.090;16.212;2023-02-26T04:08:21;1.47;;;1.37;;
15673;SDS011;7937;48.090;16.212;2023-02-26T04:11:25;1.70;;;1.50;;
15673;SDS011;7937;48.090;16.212;2023-02-26T04:14:28;2.13;;;1.60;;
15673;SDS011;7937;48.090;16.212;2023-02-26T04:17:31;1.87;;;1.60;;
15673;SDS011;7937;48.090;16.212;2023-02-26T04:20:34;2.70;;;1.67;;
15673;SDS011;7937;48.090;16.212;2023-02-26T04:23:36;2.53;;;1.50;;
15673;SDS011;7937;48.090;16.212;2023-02-26T04:26:38;1.50;;;1.40;;
15673;SDS011;7937;48.090;16.212;2023-02-26T04:29:41;3.07;;;1.47;;
15673;SDS011;7937;48.090;16.212;2023-02-26T04:32:43;2.10;;;1.30;;
15673;SDS011;7937;48.090;16.212;2023-02-26T04:35:47;1.30;;;1.20;;
15673;SDS011;7937;48.090;16.212;2023-02-26T04:38:50;1.70;;;1.60;;
15673;SDS011;7937;48.090;16.212;2023-02-26T04:41:52;2.13;;;1.67;;
15673;SDS011;7937;48.090;16.212;2023-02-26T04:44:54;1.83;;;1.70;;
15673;SDS011;7937;48.090;16.212;2023-02-26T04:47:58;1.93;;;1.73;;
15673;SDS011;7937;48.090;16.212;2023-02-26T04:51:01;1.60;;;1.50;;
15673;SDS011;7937;48.090;16.212;2023-02-26T04:54:03;1.90;;;1.80;;
15673;SDS011;7937;48.090;16.212;2023-02-26T04:57:06;1.80;;;1.70;;
15673;SDS011;7937;48.090;16.212;2023-02-26T05:00:09;1.90;;;1.80;;
15673;SDS011;7937;48.090;16.212;2023-02-26T05:03:13;1.70;;;1.53;;
15673;SDS011;7937;48.090;16.212;2023-02-26T05:06:15;2.10;;;1.90;;
15673;SDS011;7937;48.090;16.212;2023-02-26T05:09:17;1.67;;;1.57;;
15673;SDS011;7937;48.090;16.212;2023-02-26T05:12:19;2.63;;;2.10;;
15673;SDS011;7937;48.090;16.212;2023-02-26T05:15:22;1.67;;;1.57;;
15673;SDS011;7937;48.090;16.212;2023-02-26T05:18:24;2.23;;;2.00;;
15673;SDS011;7937;48.090;16.212;2023-02-26T05:21:26;1.90;;;1.80;;
15673;SDS011;7937;48.090;16.212;2023-02-26T05:24:28;2.03;;;1.83;;
15673;SDS011;7937;48.090;16.212;2023-02-26T05:27:30;2.00;;;1.80;;
15673;SDS011;7937;48.090;16.212;2023-02-26T05:30:32;2.00;;;1.73;;
15673;SDS011;7937;48.090;16.212;2023-02-26T05:33:34;2.50;;;2.30;;
15673;SDS011;7937;48.090;16.212;2023-02-26T05:36:36;1.70;;;1.60;;
15673;SDS011;7937;48.090;16.212;2023-02-26T05:39:38;2.00;;;1.90;;
15673;SDS011;7937;48.090;16.212;2023-02-26T05:42:42;2.60;;;1.80;;
15673;SDS011;7937;48.090;16.212;2023-02-26T05:45:44;1.73;;;1.63;;
15673;SDS011;7937;48.090;16.212;2023-02-26T05:48:46;2.10;;;1.83;;
15673;SDS011;7937;48.090;16.212;2023-02-26T05:51:48;1.93;;;1.77;;
15673;SDS011;7937;48.090;16.212;2023-02-26T05:54:50;1.97;;;1.87;;
15673;SDS011;7937;48.090;16.212;2023-02-26T05:57:52;2.10;;;1.90;;
15673;SDS011;7937;48.090;16.212;2023-02-26T06:00:54;2.27;;;2.07;;
15673;SDS011;7937;48.090;16.212;2023-02-26T06:03:58;2.30;;;2.07;;
15673;SDS011;7937;48.090;16.212;2023-02-26T06:07:01;2.23;;;2.00;;
15673;SDS011;7937;48.090;16.212;2023-02-26T06:10:03;2.23;;;1.90;;
15673;SDS011;7937;48.090;16.212;2023-02-26T06:13:06;2.27;;;1.90;;
15673;SDS011;7937;48.090;16.212;2023-02-26T06:16:08;2.30;;;2.13;;
15673;SDS011;7937;48.090;16.212;2023-02-26T06:19:11;2.23;;;2.03;;
15673;SDS011;7937;48.090;16.212;2023-02-26T06:22:13;2.40;;;2.20;;
15673;SDS011;7937;48.090;16.212;2023-02-26T06:25:15;2.70;;;2.30;;
15673;SDS011;7937;48.090;16.212;2023-02-26T06:28:18;2.17;;;1.97;;
15673;SDS011;7937;48.090;16.212;2023-02-26T06:31:20;2.07;;;1.97;;
15673;SDS011;7937;48.090;16.212;2023-02-26T06:34:22;2.60;;;2.40;;
15673;SDS011;7937;48.090;16.212;2023-02-26T06:37:25;2.40;;;2.20;;
15673;SDS011;7937;48.090;16.212;2023-02-26T06:40:35;4.13;;;2.27;;
15673;SDS011;7937;48.090;16.212;2023-02-26T06:43:38;2.60;;;2.40;;
15673;SDS011;7937;48.090;16.212;2023-02-26T06:46:40;3.10;;;2.80;;
15673;SDS011;7937;48.090;16.212;2023-02-26T06:49:43;2.60;;;2.40;;
15673;SDS011;7937;48.090;16.212;2023-02-26T06:52:45;3.53;;;2.50;;
15673;SDS011;7937;48.090;16.212;2023-02-26T06:55:49;2.43;;;2.23;;
15673;SDS011;7937;48.090;16.212;2023-02-26T06:58:52;2.50;;;2.30;;
15673;SDS011;7937;48.090;16.212;2023-02-26T07:01:54;2.53;;;2.30;;
15673;SDS011;7937;48.090;16.212;2023-02-26T07:04:58;2.70;;;2.50;;
15673;SDS011;7937;48.090;16.212;2023-02-26T07:08:00;2.83;;;2.50;;
15673;SDS011;7937;48.090;16.212;2023-02-26T07:11:02;2.40;;;2.20;;
15673;SDS011;7937;48.090;16.212;2023-02-26T07:14:05;2.57;;;2.37;;
15673;SDS011;7937;48.090;16.212;2023-02-26T07:17:08;2.67;;;2.40;;
15673;SDS011;7937;48.090;16.212;2023-02-26T07:20:11;2.60;;;2.40;;
15673;SDS011;7937;48.090;16.212;2023-02-26T07:23:14;2.63;;;2.33;;
15673;SDS011;7937;48.090;16.212;2023-02-26T07:26:17;2.70;;;2.50;;
15673;SDS011;7937;48.090;16.212;2023-02-26T07:29:19;2.30;;;2.10;;
15673;SDS011;7937;48.090;16.212;2023-02-26T07:32:22;1.90;;;1.77;;
15673;SDS011;7937;48.090;16.212;2023-02-26T07:35:24;2.00;;;1.80;;
15673;SDS011;7937;48.090;16.212;2023-02-26T07:38:27;2.33;;;2.13;;
15673;SDS011;7937;48.090;16.212;2023-02-26T07:41:29;2.30;;;2.10;;
15673;SDS011;7937;48.090;16.212;2023-02-26T07:44:32;2.50;;;2.30;;
15673;SDS011;7937;48.090;16.212;2023-02-26T07:47:34;2.50;;;2.30;;
15673;SDS011;7937;48.090;16.212;2023-02-26T07:50:37;1.70;;;1.60;;
15673;SDS011;7937;48.090;16.212;2023-02-26T07:53:39;2.30;;;2.10;;
15673;SDS011;7937;48.090;16.212;2023-02-26T07:56:42;2.30;;;2.07;;
15673;SDS011;7937;48.090;16.212;2023-02-26T07:59:45;1.60;;;1.50;;
15673;SDS011;7937;48.090;16.212;2023-02-26T08:02:47;1.83;;;1.73;;
15673;SDS011;7937;48.090;16.212;2023-02-26T08:05:49;2.00;;;1.80;;
15673;SDS011;7937;48.090;16.212;2023-02-26T08:08:52;1.77;;;1.67;;
15673;SDS011;7937;48.090;16.212;2023-02-26T08:11:54;2.27;;;1.83;;
15673;SDS011;7937;48.090;16.212;2023-02-26T08:14:56;2.10;;;1.90;;
15673;SDS011;7937;48.090;16.212;2023-02-26T08:17:59;2.40;;;2.20;;
15673;SDS011;7937;48.090;16.212;2023-02-26T08:21:01;2.00;;;1.80;;
15673;SDS011;7937;48.090;16.212;2023-02-26T08:24:04;2.10;;;1.93;;
15673;SDS011;7937;48.090;16.212;2023-02-26T08:27:06;2.43;;;1.87;;
15673;SDS011;7937;48.090;16.212;2023-02-26T08:30:09;2.10;;;1.90;;
15673;SDS011;7937;48.090;16.212;2023-02-26T08:33:13;1.30;;;1.20;;
15673;SDS011;7937;48.090;16.212;2023-02-26T08:36:15;1.70;;;1.60;;
15673;SDS011;7937;48.090;16.212;2023-02-26T08:39:17;1.90;;;1.80;;
15673;SDS011;7937;48.090;16.212;2023-02-26T08:42:19;2.87;;;1.60;;
15673;SDS011;7937;48.090;16.212;2023-02-26T08:45:21;1.40;;;1.23;;
15673;SDS011;7937;48.090;16.212;2023-02-26T08:48:24;1.97;;;1.47;;
15673;SDS011;7937;48.090;16.212;2023-02-26T08:51:26;1.93;;;1.47;;
15673;SDS011;7937;48.090;16.212;2023-02-26T08:54:29;1.80;;;1.40;;
15673;SDS011;7937;48.090;16.212;2023-02-26T08:57:32;1.73;;;1.50;;
15673;SDS011;7937;48.090;16.212;2023-02-26T09:00:34;2.20;;;1.60;;
15673;SDS011;7937;48.090;16.212;2023-02-26T09:03:37;1.70;;;1.60;;
15673;SDS011;7937;48.090;16.212;2023-02-26T09:06:40;1.63;;;1.40;;
15673;SDS011;7937;48.090;16.212;2023-02-26T09:09:42;2.20;;;1.57;;
15673;SDS011;7937;48.090;16.212;2023-02-26T09:12:44;1.50;;;1.40;;
15673;SDS011;7937;48.090;16.212;2023-02-26T09:15:48;1.40;;;1.30;;
15673;SDS011;7937;48.090;16.212;2023-02-26T09:18:50;1.30;;;1.10;;
15673;SDS011;7937;48.090;16.212;2023-02-26T09:21:52;1.70;;;1.60;;
15673;SDS011;7937;48.090;16.212;2023-02-26T09:24:54;2.10;;;1.43;;
15673;SDS011;7937;48.090;16.212;2023-02-26T09:27:56;1.53;;;1.37;;
15673;SDS011;7937;48.090;16.212;2023-02-26T09:30:59;1.60;;;1.40;;
15673;SDS011;7937;48.090;16.212;2023-02-26T09:34:01;1.47;;;1.37;;
15673;SDS011;7937;48.090;16.212;2023-02-26T09:37:04;2.00;;;1.80;;
15673;SDS011;7937;48.090;16.212;2023-02-26T09:40:09;1.37;;;1.20;;
15673;SDS011;7937;48.090;16.212;2023-02-26T09:46:55;1.47;;;1.10;;
15673;SDS011;7937;48.090;16.212;2023-02-26T09:50:11;1.40;;;1.03;;
15673;SDS011;7937;48.090;16.212;2023-02-26T09:53:27;1.57;;;1.10;;
15673;SDS011;7937;48.090;16.212;2023-02-26T09:56:34;1.37;;;1.20;;
15673;SDS011;7937;48.090;16.212;2023-02-26T09:59:41;1.30;;;1.13;;
15673;SDS011;7937;48.090;16.212;2023-02-26T10:12:45;1.10;;;0.93;;
15673;SDS011;7937;48.090;16.212;2023-02-26T10:15:51;1.57;;;0.93;;
15673;SDS011;7937;48.090;16.212;2023-02-26T10:19:07;1.93;;;1.00;;
15673;SDS011;7937;48.090;16.212;2023-02-26T10:29:30;1.03;;;0.93;;
15673;SDS011;7937;48.090;16.212;2023-02-26T10:32:45;1.40;;;0.90;;
15673;SDS011;7937;48.090;16.212;2023-02-26T10:35:51;0.60;;;0.53;;
15673;SDS011;7937;48.090;16.212;2023-02-26T10:39:03;0.70;;;0.70;;
15673;SDS011;7937;48.090;16.212;2023-02-26T10:42:21;1.63;;;0.90;;
15673;SDS011;7937;48.090;16.212;2023-02-26T10:49:12;1.47;;;0.80;;
15673;SDS011;7937;48.090;16.212;2023-02-26T10:52:38;0.60;;;0.53;;
15673;SDS011;7937;48.090;16.212;2023-02-26T10:59:17;0.77;;;0.50;;
15673;SDS011;7937;48.090;16.212;2023-02-26T11:02:30;0.60;;;0.60;;
15673;SDS011;7937;48.090;16.212;2023-02-26T11:05:36;0.77;;;0.70;;
15673;SDS011;7937;48.090;16.212;2023-02-26T11:08:44;1.20;;;0.80;;
15673;SDS011;7937;48.090;16.212;2023-02-26T11:11:52;1.07;;;0.90;;
15673;SDS011;7937;48.090;16.212;2023-02-26T11:14:54;1.00;;;0.60;;
15673;SDS011;7937;48.090;16.212;2023-02-26T11:17:57;1.37;;;0.70;;
15673;SDS011;7937;48.090;16.212;2023-02-26T11:21:02;0.83;;;0.73;;
15673;SDS011;7937;48.090;16.212;2023-02-26T11:24:07;0.73;;;0.63;;
15673;SDS011;7937;48.090;16.212;2023-02-26T11:27:33;1.93;;;0.80;;
15673;SDS011;7937;48.090;16.212;2023-02-26T11:30:37;1.33;;;0.77;;
15673;SDS011;7937;48.090;16.212;2023-02-26T11:33:44;1.07;;;0.87;;
15673;SDS011;7937;48.090;16.212;2023-02-26T11:36:52;1.27;;;0.77;;
15673;SDS011;7937;48.090;16.212;2023-02-26T11:39:58;0.70;;;0.70;;
15673;SDS011;7937;48.090;16.212;2023-02-26T11:43:13;1.40;;;0.93;;
15673;SDS011;7937;48.090;16.212;2023-02-26T11:46:19;1.87;;;0.80;;
15673;SDS011;7937;48.090;16.212;2023-02-26T11:49:26;1.00;;;0.83;;
15673;SDS011;7937;48.090;16.212;2023-02-26T11:52:43;1.10;;;0.83;;
15673;SDS011;7937;48.090;16.212;2023-02-26T11:55:52;1.40;;;0.83;;
15673;SDS011;7937;48.090;16.212;2023-02-26T11:59:06;0.80;;;0.60;;
15673;SDS011;7937;48.090;16.212;2023-02-26T12:02:32;1.27;;;0.90;;
15673;SDS011;7937;48.090;16.212;2023-02-26T12:05:39;2.03;;;0.53;;
15673;SDS011;7937;48.090;16.212;2023-02-26T12:08:41;1.50;;;0.90;;
15673;SDS011;7937;48.090;16.212;2023-02-26T12:11:57;2.00;;;0.90;;
15673;SDS011;7937;48.090;16.212;2023-02-26T12:15:16;0.70;;;0.60;;
15673;SDS011;7937;48.090;16.212;2023-02-26T12:28:36;1.27;;;0.60;;
15673;SDS011;7937;48.090;16.212;2023-02-26T12:48:53;1.00;;;0.90;;
15673;SDS011;7937;48.090;16.212;2023-02-26T12:58:59;0.83;;;0.80;;
15673;SDS011;7937;48.090;16.212;2023-02-26T13:12:37;5.47;;;4.33;;
15673;SDS011;7937;48.090;16.212;2023-02-26T13:16:05;2.17;;;1.60;;
15673;SDS011;7937;48.090;16.212;2023-02-26T13:22:47;1.07;;;0.87;;
15673;SDS011;7937;48.090;16.212;2023-02-26T13:25:56;1.03;;;0.77;;
15673;SDS011;7937;48.090;16.212;2023-02-26T13:29:10;0.85;;;0.70;;
15673;SDS011;7937;48.090;16.212;2023-02-26T13:32:18;1.87;;;1.00;;
15673;SDS011;7937;48.090;16.212;2023-02-26T13:42:17;0.80;;;0.80;;
15673;SDS011;7937;48.090;16.212;2023-02-26T13:51:45;1.05;;;0.70;;
15673;SDS011;7937;48.090;16.212;2023-02-26T13:54:49;1.05;;;0.93;;
15673;SDS011;7937;48.090;16.212;2023-02-26T13:57:54;0.70;;;0.70;;
15673;SDS011;7937;48.090;16.212;2023-02-26T14:14:40;1.17;;;0.80;;
15673;SDS011;7937;48.090;16.212;2023-02-26T14:18:17;0.73;;;0.65;;
15673;SDS011;7937;48.090;16.212;2023-02-26T14:21:34;0.80;;;0.70;;
15673;SDS011;7937;48.090;16.212;2023-02-26T14:31:26;1.20;;;0.93;;
15673;SDS011;7937;48.090;16.212;2023-02-26T14:34:59;5.00;;;3.33;;
15673;SDS011;7937;48.090;16.212;2023-02-26T14:38:12;3.60;;;2.13;;
15673;SDS011;7937;48.090;16.212;2023-02-26T14:41:27;1.20;;;1.00;;
15673;SDS011;7937;48.090;16.212;2023-02-26T14:44:48;0.70;;;0.70;;
15673;SDS011;7937;48.090;16.212;2023-02-26T14:47:55;0.73;;;0.70;;
15673;SDS011;7937;48.090;16.212;2023-02-26T14:57:46;0.70;;;0.70;;
15673;SDS011;7937;48.090;16.212;2023-02-26T15:01:07;1.20;;;0.73;;
15673;SDS011;7937;48.090;16.212;2023-02-26T15:04:45;0.93;;;0.87;;
15673;SDS011;7937;48.090;16.212;2023-02-26T15:18:21;1.40;;;0.90;;
15673;SDS011;7937;48.090;16.212;2023-02-26T15:21:45;0.87;;;0.70;;
15673;SDS011;7937;48.090;16.212;2023-02-26T15:25:31;0.97;;;0.90;;
15673;SDS011;7937;48.090;16.212;2023-02-26T15:28:39;1.17;;;0.90;;
15673;SDS011;7937;48.090;16.212;2023-02-26T15:31:54;1.77;;;1.10;;
15673;SDS011;7937;48.090;16.212;2023-02-26T15:35:05;1.67;;;1.20;;
15673;SDS011;7937;48.090;16.212;2023-02-26T15:38:17;1.20;;;1.10;;
15673;SDS011;7937;48.090;16.212;2023-02-26T15:41:29;1.87;;;1.07;;
15673;SDS011;7937;48.090;16.212;2023-02-26T15:44:35;1.77;;;0.90;;
15673;SDS011;7937;48.090;16.212;2023-02-26T15:47:50;1.10;;;1.00;;
15673;SDS011;7937;48.090;16.212;2023-02-26T15:51:04;1.13;;;0.90;;
15673;SDS011;7937;48.090;16.212;2023-02-26T15:54:13;1.07;;;0.80;;
15673;SDS011;7937;48.090;16.212;2023-02-26T15:57:21;1.63;;;1.00;;
15673;SDS011;7937;48.090;16.212;2023-02-26T16:00:26;1.23;;;0.97;;
15673;SDS011;7937;48.090;16.212;2023-02-26T16:03:34;1.20;;;0.80;;
15673;SDS011;7937;48.090;16.212;2023-02-26T16:06:40;1.10;;;0.87;;
15673;SDS011;7937;48.090;16.212;2023-02-26T16:10:05;0.80;;;0.60;;
15673;SDS011;7937;48.090;16.212;2023-02-26T16:13:32;0.50;;;0.50;;
15673;SDS011;7937;48.090;16.212;2023-02-26T16:16:47;0.83;;;0.80;;
15673;SDS011;7937;48.090;16.212;2023-02-26T16:19:54;1.00;;;0.90;;
15673;SDS011;7937;48.090;16.212;2023-02-26T16:23:14;1.10;;;0.80;;
15673;SDS011;7937;48.090;16.212;2023-02-26T16:26:20;0.80;;;0.77;;
15673;SDS011;7937;48.090;16.212;2023-02-26T16:29:34;1.27;;;0.90;;
15673;SDS011;7937;48.090;16.212;2023-02-26T16:32:42;1.37;;;0.80;;
15673;SDS011;7937;48.090;16.212;2023-02-26T16:35:49;0.97;;;0.77;;
15673;SDS011;7937;48.090;16.212;2023-02-26T16:39:20;0.80;;;0.60;;
15673;SDS011;7937;48.090;16.212;2023-02-26T16:42:35;1.57;;;0.90;;
15673;SDS011;7937;48.090;16.212;2023-02-26T16:51:59;1.30;;;1.07;;
15673;SDS011;7937;48.090;16.212;2023-02-26T16:55:03;1.53;;;1.07;;
15673;SDS011;7937;48.090;16.212;2023-02-26T16:58:10;1.00;;;0.90;;
15673;SDS011;7937;48.090;16.212;2023-02-26T17:01:17;2.73;;;1.20;;
15673;SDS011;7937;48.090;16.212;2023-02-26T17:04:24;1.37;;;1.10;;
15673;SDS011;7937;48.090;16.212;2023-02-26T17:07:34;1.60;;;0.90;;
15673;SDS011;7937;48.090;16.212;2023-02-26T17:14:13;1.40;;;1.10;;
15673;SDS011;7937;48.090;16.212;2023-02-26T17:17:23;1.10;;;1.00;;
15673;SDS011;7937;48.090;16.212;2023-02-26T17:20:27;2.13;;;1.17;;
15673;SDS011;7937;48.090;16.212;2023-02-26T17:23:32;1.43;;;1.10;;
15673;SDS011;7937;48.090;16.212;2023-02-26T17:26:41;1.30;;;1.00;;
15673;SDS011;7937;48.090;16.212;2023-02-26T17:29:45;1.33;;;0.80;;
15673;SDS011;7937;48.090;16.212;2023-02-26T17:32:55;1.50;;;1.20;;
15673;SDS011;7937;48.090;16.212;2023-02-26T17:35:59;1.57;;;1.10;;
15673;SDS011;7937;48.090;16.212;2023-02-26T17:39:03;1.87;;;1.10;;
15673;SDS011;7937;48.090;16.212;2023-02-26T17:42:10;1.40;;;0.97;;
15673;SDS011;7937;48.090;16.212;2023-02-26T17:45:15;1.43;;;1.03;;
15673;SDS011;7937;48.090;16.212;2023-02-26T17:48:18;1.00;;;0.83;;
15673;SDS011;7937;48.090;16.212;2023-02-26T17:51:21;1.57;;;1.10;;
15673;SDS011;7937;48.090;16.212;2023-02-26T17:54:24;1.57;;;0.97;;
15673;SDS011;7937;48.090;16.212;2023-02-26T17:57:27;1.83;;;1.30;;
15673;SDS011;7937;48.090;16.212;2023-02-26T18:00:30;2.57;;;1.40;;
15673;SDS011;7937;48.090;16.212;2023-02-26T18:03:35;1.23;;;1.10;;
15673;SDS011;7937;48.090;16.212;2023-02-26T18:06:42;2.00;;;1.57;;
15673;SDS011;7937;48.090;16.212;2023-02-26T18:09:46;1.17;;;1.07;;
15673;SDS011;7937;48.090;16.212;2023-02-26T18:12:50;1.20;;;1.10;;
15673;SDS011;7937;48.090;16.212;2023-02-26T18:15:54;2.90;;;1.57;;
15673;SDS011;7937;48.090;16.212;2023-02-26T18:19:09;1.10;;;0.90;;
15673;SDS011;7937;48.090;16.212;2023-02-26T18:22:16;1.67;;;1.10;;
15673;SDS011;7937;48.090;16.212;2023-02-26T18:25:21;1.93;;;1.10;;
15673;SDS011;7937;48.090;16.212;2023-02-26T18:28:25;1.33;;;1.13;;
15673;SDS011;7937;48.090;16.212;2023-02-26T18:31:29;1.47;;;1.07;;
15673;SDS011;7937;48.090;16.212;2023-02-26T18:34:37;1.63;;;1.20;;
15673;SDS011;7937;48.090;16.212;2023-02-26T18:37:40;2.00;;;1.30;;
15673;SDS011;7937;48.090;16.212;2023-02-26T18:40:44;1.57;;;1.17;;
15673;SDS011;7937;48.090;16.212;2023-02-26T18:43:48;1.60;;;1.43;;
15673;SDS011;7937;48.090;16.212;2023-02-26T18:46:51;1.83;;;1.40;;
15673;SDS011;7937;48.090;16.212;2023-02-26T18:49:54;1.97;;;1.20;;
15673;SDS011;7937;48.090;16.212;2023-02-26T18:53:00;1.70;;;1.50;;
15673;SDS011;7937;48.090;16.212;2023-02-26T18:56:05;2.17;;;1.30;;
15673;SDS011;7937;48.090;16.212;2023-02-26T18:59:08;1.83;;;1.20;;
15673;SDS011;7937;48.090;16.212;2023-02-26T19:02:11;1.73;;;1.30;;
15673;SDS011;7937;48.090;16.212;2023-02-26T19:05:15;1.83;;;1.37;;
15673;SDS011;7937;48.090;16.212;2023-02-26T19:08:20;2.13;;;1.30;;
15673;SDS011;7937;48.090;16.212;2023-02-26T19:11:24;1.87;;;1.20;;
15673;SDS011;7937;48.090;16.212;2023-02-26T19:14:27;1.20;;;1.10;;
15673;SDS011;7937;48.090;16.212;2023-02-26T19:17:31;1.60;;;1.40;;
15673;SDS011;7937;48.090;16.212;2023-02-26T19:20:34;2.00;;;1.50;;
15673;SDS011;7937;48.090;16.212;2023-02-26T19:23:37;1.57;;;1.30;;
15673;SDS011;7937;48.090;16.212;2023-02-26T19:26:42;1.87;;;1.60;;
15673;SDS011;7937;48.090;16.212;2023-02-26T19:29:46;4.17;;;2.00;;
15673;SDS011;7937;48.090;16.212;2023-02-26T19:32:49;1.20;;;1.10;;
15673;SDS011;7937;48.090;16.212;2023-02-26T19:35:53;1.20;;;1.10;;
15673;SDS011;7937;48.090;16.212;2023-02-26T19:38:57;2.70;;;2.17;;
15673;SDS011;7937;48.090;16.212;2023-02-26T19:42:03;2.30;;;1.67;;
15673;SDS011;7937;48.090;16.212;2023-02-26T19:45:06;2.17;;;1.60;;
15673;SDS011;7937;48.090;16.212;2023-02-26T19:48:10;1.57;;;1.30;;
15673;SDS011;7937;48.090;16.212;2023-02-26T19:51:18;2.10;;;1.40;;
15673;SDS011;7937;48.090;16.212;2023-02-26T19:54:21;1.93;;;1.40;;
15673;SDS011;7937;48.090;16.212;2023-02-26T19:57:25;1.57;;;1.23;;
15673;SDS011;7937;48.090;16.212;2023-02-26T20:00:29;2.00;;;1.30;;
15673;SDS011;7937;48.090;16.212;2023-02-26T20:03:33;1.23;;;1.13;;
15673;SDS011;7937;48.090;16.212;2023-02-26T20:06:42;1.97;;;1.40;;
15673;SDS011;7937;48.090;16.212;2023-02-26T20:09:45;3.33;;;1.80;;
15673;SDS011;7937;48.090;16.212;2023-02-26T20:12:50;2.50;;;1.53;;
15673;SDS011;7937;48.090;16.212;2023-02-26T20:15:54;2.97;;;1.93;;
15673;SDS011;7937;48.090;16.212;2023-02-26T20:19:01;2.10;;;1.40;;
15673;SDS011;7937;48.090;16.212;2023-02-26T20:22:09;2.13;;;1.40;;
15673;SDS011;7937;48.090;16.212;2023-02-26T20:25:13;1.37;;;1.27;;
15673;SDS011;7937;48.090;16.212;2023-02-26T20:28:17;1.70;;;1.40;;
15673;SDS011;7937;48.090;16.212;2023-02-26T20:31:22;2.90;;;1.53;;
15673;SDS011;7937;48.090;16.212;2023-02-26T20:34:30;2.23;;;1.40;;
15673;SDS011;7937;48.090;16.212;2023-02-26T20:37:33;2.27;;;1.27;;
15673;SDS011;7937;48.090;16.212;2023-02-26T20:40:37;1.90;;;1.60;;
15673;SDS011;7937;48.090;16.212;2023-02-26T20:43:40;3.00;;;1.70;;
15673;SDS011;7937;48.090;16.212;2023-02-26T20:46:43;2.10;;;1.77;;
15673;SDS011;7937;48.090;16.212;2023-02-26T20:49:45;1.90;;;1.70;;
15673;SDS011;7937;48.090;16.212;2023-02-26T20:52:51;1.87;;;1.60;;
15673;SDS011;7937;48.090;16.212;2023-02-26T20:55:54;1.80;;;1.50;;
15673;SDS011;7937;48.090;16.212;2023-02-26T20:59:00;2.43;;;1.30;;
15673;SDS011;7937;48.090;16.212;2023-02-26T21:02:04;3.40;;;1.60;;
15673;SDS011;7937;48.090;16.212;2023-02-26T21:05:08;2.60;;;1.80;;
15673;SDS011;7937;48.090;16.212;2023-02-26T21:08:12;2.27;;;1.70;;
15673;SDS011;7937;48.090;16.212;2023-02-26T21:11:14;2.43;;;1.70;;
15673;SDS011;7937;48.090;16.212;2023-02-26T21:14:22;3.17;;;1.70;;
15673;SDS011;7937;48.090;16.212;2023-02-26T21:17:28;2.23;;;1.63;;
15673;SDS011;7937;48.090;16.212;2023-02-26T21:20:33;2.43;;;1.70;;
15673;SDS011;7937;48.090;16.212;2023-02-26T21:23:37;1.97;;;1.50;;
15673;SDS011;7937;48.090;16.212;2023-02-26T21:26:40;3.33;;;1.90;;
15673;SDS011;7937;48.090;16.212;2023-02-26T21:29:43;3.40;;;1.80;;
15673;SDS011;7937;48.090;16.212;2023-02-26T21:32:46;2.13;;;1.70;;
15673;SDS011;7937;48.090;16.212;2023-02-26T21:35:50;2.13;;;1.60;;
15673;SDS011;7937;48.090;16.212;2023-02-26T21:38:52;2.23;;;1.70;;
15673;SDS011;7937;48.090;16.212;2023-02-26T21:41:55;2.00;;;1.70;;
15673;SDS011;7937;48.090;16.212;2023-02-26T21:44:59;1.50;;;1.40;;
15673;SDS011;7937;48.090;16.212;2023-02-26T21:48:01;2.57;;;1.80;;
15673;SDS011;7937;48.090;16.212;2023-02-26T21:51:05;4.53;;;1.90;;
15673;SDS011;7937;48.090;16.212;2023-02-26T21:54:07;3.43;;;1.93;;